createdAt,value
2023-02-22T00:02:14.030Z,40.70
2023-02-22T00:04:49.058Z,40.80
2023-02-22T00:07:24.020Z,40.70
2023-02-22T00:10:00.939Z,40.70
2023-02-22T00:12:36.534Z,40.70
2023-02-22T00:15:14.274Z,40.80
2023-02-22T00:17:49.360Z,40.80
2023-02-22T00:20:24.499Z,40.80
2023-02-22T00:23:01.513Z,40.90
2023-02-22T00:25:37.266Z,41.20
2023-02-22T00:28:12.669Z,41.40
2023-02-22T00:30:48.292Z,41.60
2023-02-22T00:33:23.646Z,41.80
2023-02-22T00:35:58.956Z,41.80
2023-02-22T00:38:35.585Z,41.80
2023-02-22T00:41:11.961Z,41.90
2023-02-22T00:43:48.933Z,42.00
2023-02-22T00:46:24.351Z,42.20
2023-02-22T00:49:01.340Z,42.50
2023-02-22T00:51:36.794Z,42.40
2023-02-22T00:54:12.048Z,42.60
2023-02-22T00:56:47.277Z,42.60
2023-02-22T00:59:22.256Z,42.50
2023-02-22T01:01:57.250Z,42.40
2023-02-22T01:04:32.533Z,42.40
2023-02-22T01:07:07.924Z,42.70
2023-02-22T01:09:44.288Z,42.70
2023-02-22T01:12:20.949Z,42.80
2023-02-22T01:14:57.038Z,43.20
2023-02-22T01:17:32.120Z,43.50
2023-02-22T01:20:15.266Z,43.80
2023-02-22T01:22:53.318Z,44.00
2023-02-22T01:25:31.174Z,44.40
2023-02-22T01:28:08.020Z,44.50
2023-02-22T01:30:43.092Z,44.60
2023-02-22T01:33:18.252Z,44.50
2023-02-22T01:35:53.433Z,44.60
2023-02-22T01:38:28.598Z,44.70
2023-02-22T01:41:05.667Z,44.80
2023-02-22T01:43:40.629Z,44.80
2023-02-22T01:46:27.549Z,44.90
2023-02-22T01:49:06.511Z,45.10
2023-02-22T01:51:49.097Z,45.40
2023-02-22T01:54:46.289Z,45.50
2023-02-22T01:57:33.529Z,45.60
2023-02-22T02:00:20.262Z,45.70
2023-02-22T02:03:01.764Z,45.70
2023-02-22T02:05:38.225Z,46.00
2023-02-22T02:08:37.324Z,45.90
2023-02-22T02:11:12.463Z,46.10
2023-02-22T02:13:51.352Z,46.00
2023-02-22T02:16:39.063Z,46.00
2023-02-22T02:19:59.309Z,46.20
2023-02-22T02:22:42.856Z,46.30
2023-02-22T02:25:40.269Z,46.40
2023-02-22T02:28:59.532Z,46.60
2023-02-22T02:31:40.257Z,46.70
2023-02-22T02:34:35.380Z,46.70
2023-02-22T02:37:45.053Z,46.80
2023-02-22T02:40:51.919Z,46.80
2023-02-22T02:43:55.352Z,46.70
2023-02-22T02:46:46.936Z,46.70
2023-02-22T02:49:35.832Z,46.70
2023-02-22T02:52:13.300Z,47.20
2023-02-22T02:54:49.280Z,47.30
2023-02-22T02:57:24.746Z,47.40
2023-02-22T02:59:59.720Z,47.50
2023-02-22T03:03:06.692Z,47.40
2023-02-22T03:06:05.891Z,47.20
2023-02-22T03:09:21.882Z,46.90
2023-02-22T03:12:47.021Z,46.70
2023-02-22T03:16:05.081Z,46.80
2023-02-22T03:19:19.616Z,46.70
2023-02-22T03:22:19.182Z,46.70
2023-02-22T03:24:59.012Z,46.80
2023-02-22T03:27:56.178Z,46.80
2023-02-22T03:30:39.216Z,46.90
2023-02-22T03:33:33.712Z,46.60
2023-02-22T03:36:38.967Z,46.40
2023-02-22T03:39:16.974Z,46.20
2023-02-22T03:41:52.946Z,46.00
2023-02-22T03:44:40.213Z,46.00
2023-02-22T03:47:23.102Z,46.30
2023-02-22T03:50:18.601Z,46.10
2023-02-22T03:52:53.902Z,46.00
2023-02-22T03:55:35.866Z,46.20
2023-02-22T03:58:13.995Z,46.20
2023-02-22T04:00:53.139Z,46.30
2023-02-22T04:03:28.428Z,46.20
2023-02-22T04:06:03.848Z,46.20
2023-02-22T04:08:39.155Z,46.00
2023-02-22T04:11:14.529Z,45.80
2023-02-22T04:13:50.225Z,46.00
2023-02-22T04:16:26.679Z,46.00
2023-02-22T04:19:02.781Z,46.00
2023-02-22T04:21:38.142Z,46.10
2023-02-22T04:24:14.973Z,46.00
2023-02-22T04:26:51.041Z,46.10
2023-02-22T04:29:27.200Z,46.10
2023-02-22T04:32:02.216Z,46.40
2023-02-22T04:34:37.464Z,46.00
2023-02-22T04:37:12.881Z,46.10
2023-02-22T04:39:48.537Z,45.90
2023-02-22T04:42:23.613Z,45.90
2023-02-22T04:44:58.535Z,45.80
2023-02-22T04:47:34.609Z,45.70
2023-02-22T04:50:11.965Z,45.70
2023-02-22T04:52:47.467Z,45.50
2023-02-22T04:55:22.580Z,45.70
2023-02-22T04:57:58.201Z,45.80
2023-02-22T05:00:33.287Z,45.70
2023-02-22T05:03:10.484Z,45.70
2023-02-22T05:05:45.424Z,45.70
2023-02-22T05:08:20.424Z,45.90
2023-02-22T05:10:55.701Z,46.10
2023-02-22T05:13:31.178Z,45.80
2023-02-22T05:16:06.477Z,45.80
2023-02-22T05:18:41.424Z,45.80
2023-02-22T05:21:16.580Z,45.70
2023-02-22T05:23:51.581Z,45.70
2023-02-22T05:26:26.523Z,45.70
2023-02-22T05:29:01.411Z,45.80
2023-02-22T05:31:36.733Z,45.80
2023-02-22T05:34:12.091Z,46.00
2023-02-22T05:36:47.008Z,46.00
2023-02-22T05:39:21.961Z,46.00
2023-02-22T05:41:58.139Z,45.90
2023-02-22T05:44:33.126Z,46.10
2023-02-22T05:47:08.162Z,46.20
2023-02-22T05:49:43.144Z,46.20
2023-02-22T05:52:18.481Z,46.50
2023-02-22T05:54:53.554Z,46.40
2023-02-22T05:57:28.476Z,46.40
2023-02-22T06:00:06.884Z,46.10
2023-02-22T06:02:47.732Z,46.10
2023-02-22T06:05:25.533Z,46.20
2023-02-22T06:08:01.992Z,46.50
2023-02-22T06:10:36.903Z,46.70
2023-02-22T06:13:11.965Z,46.60
2023-02-22T06:15:46.916Z,46.70
2023-02-22T06:18:22.017Z,46.60
2023-02-22T06:21:00.361Z,46.50
2023-02-22T06:23:35.430Z,46.50
2023-02-22T06:26:10.565Z,45.60
2023-02-22T06:28:47.190Z,46.40
2023-02-22T06:31:22.373Z,46.20
2023-02-22T06:33:57.478Z,46.10
2023-02-22T06:36:32.388Z,46.20
2023-02-22T06:39:12.633Z,46.20
2023-02-22T06:41:48.070Z,46.00
2023-02-22T06:44:23.102Z,46.10
2023-02-22T06:46:59.643Z,46.00
2023-02-22T06:49:34.625Z,45.80
2023-02-22T06:52:10.224Z,45.70
2023-02-22T06:54:45.256Z,45.60
2023-02-22T06:57:20.289Z,45.40
2023-02-22T06:59:55.209Z,45.10
2023-02-22T07:02:30.262Z,45.00
2023-02-22T07:05:05.631Z,44.90
2023-02-22T07:07:40.779Z,44.70
2023-02-22T07:10:21.849Z,44.60
2023-02-22T07:12:56.965Z,44.40
2023-02-22T07:15:33.995Z,44.00
2023-02-22T07:18:09.109Z,43.80
2023-02-22T07:20:44.096Z,43.60
2023-02-22T07:23:21.140Z,43.40
2023-02-22T07:25:56.691Z,43.20
2023-02-22T07:28:31.726Z,42.90
2023-02-22T07:31:09.850Z,42.80
2023-02-22T07:33:47.633Z,42.50
2023-02-22T07:36:22.738Z,42.30
2023-02-22T07:38:57.745Z,42.20
2023-02-22T07:41:32.679Z,42.10
2023-02-22T07:44:07.626Z,41.90
2023-02-22T07:46:47.154Z,41.90
2023-02-22T07:49:23.208Z,41.80
2023-02-22T07:51:58.296Z,41.60
2023-02-22T07:54:33.260Z,41.40
2023-02-22T07:57:08.319Z,41.40
2023-02-22T07:59:46.077Z,41.20
2023-02-22T08:02:21.886Z,41.00
2023-02-22T08:04:56.900Z,40.70
2023-02-22T08:07:31.879Z,40.50
2023-02-22T08:10:10.903Z,40.30
2023-02-22T08:12:46.043Z,40.20
2023-02-22T08:15:30.891Z,40.10
2023-02-22T08:18:11.307Z,39.90
2023-02-22T08:20:48.637Z,39.80
2023-02-22T08:23:26.902Z,39.70
2023-02-22T08:26:15.582Z,39.50
2023-02-22T08:28:50.597Z,39.30
2023-02-22T08:31:25.647Z,39.10
2023-02-22T08:34:01.072Z,39.00
2023-02-22T08:36:35.997Z,38.60
2023-02-22T08:39:10.957Z,38.50
2023-02-22T08:41:45.934Z,38.50
2023-02-22T08:44:20.986Z,38.40
2023-02-22T08:46:55.930Z,38.30
2023-02-22T08:49:31.113Z,38.00
2023-02-22T08:52:06.107Z,37.80
2023-02-22T08:54:41.096Z,37.70
2023-02-22T08:57:16.206Z,37.60
2023-02-22T08:59:51.101Z,37.60
2023-02-22T09:02:26.067Z,37.70
2023-02-22T09:05:01.113Z,37.70
2023-02-22T09:07:36.034Z,37.80
2023-02-22T09:10:24.419Z,37.80
2023-02-22T09:13:01.205Z,37.70
2023-02-22T09:15:36.314Z,37.70
2023-02-22T09:18:14.606Z,36.70
2023-02-22T09:20:50.846Z,36.70
2023-02-22T09:23:27.310Z,36.60
2023-02-22T09:26:02.281Z,36.50
2023-02-22T09:28:37.539Z,36.40
2023-02-22T09:31:12.792Z,36.40
2023-02-22T09:33:47.768Z,36.40
2023-02-22T09:36:24.056Z,36.40
2023-02-22T09:39:02.163Z,36.40
2023-02-22T09:41:57.101Z,36.20
2023-02-22T09:44:48.488Z,36.20
2023-02-22T09:48:01.312Z,36.10
2023-02-22T09:50:44.911Z,35.70
2023-02-22T09:53:33.316Z,35.40
2023-02-22T09:56:15.097Z,35.00
2023-02-22T09:59:03.592Z,34.90
2023-02-22T10:01:46.659Z,34.90
2023-02-22T10:04:41.961Z,34.50
2023-02-22T10:07:28.274Z,34.50
2023-02-22T10:10:06.471Z,34.40
2023-02-22T10:13:14.085Z,34.10
2023-02-22T10:16:19.009Z,33.80
2023-02-22T10:19:54.706Z,33.80
2023-02-22T10:23:12.696Z,33.60
2023-02-22T10:26:01.459Z,33.50
2023-02-22T10:28:44.276Z,33.50
2023-02-22T10:31:30.964Z,33.30
2023-02-22T10:34:16.521Z,33.40
2023-02-22T10:37:22.906Z,33.20
2023-02-22T10:40:22.872Z,33.00
2023-02-22T10:43:06.782Z,32.70
2023-02-22T10:45:41.867Z,32.70
2023-02-22T10:48:21.049Z,32.70
2023-02-22T10:51:02.128Z,32.50
2023-02-22T10:53:38.520Z,32.60
2023-02-22T10:56:18.468Z,32.50
2023-02-22T10:59:04.345Z,32.50
2023-02-22T11:01:43.051Z,32.20
2023-02-22T11:04:24.011Z,31.90
2023-02-22T11:07:02.018Z,31.80
2023-02-22T11:10:02.130Z,31.90
2023-02-22T11:12:41.359Z,31.80
2023-02-22T11:15:19.035Z,31.50
2023-02-22T11:17:57.482Z,31.20
2023-02-22T11:20:39.318Z,30.70
2023-02-22T11:23:20.921Z,30.60
2023-02-22T11:26:07.590Z,30.70
2023-02-22T11:28:56.005Z,30.40
2023-02-22T11:31:31.077Z,30.20
2023-02-22T11:34:05.998Z,30.40
2023-02-22T11:36:43.230Z,30.50
2023-02-22T11:39:26.906Z,30.30
2023-02-22T11:42:25.824Z,30.20
2023-02-22T11:45:20.638Z,30.40
2023-02-22T11:48:00.672Z,30.20
2023-02-22T11:51:00.168Z,30.10
2023-02-22T11:54:12.350Z,30.00
2023-02-22T11:56:50.367Z,30.00
2023-02-22T12:00:06.779Z,29.90
2023-02-22T12:03:35.400Z,30.00
2023-02-22T12:06:32.851Z,29.90
2023-02-22T12:09:35.130Z,30.00
2023-02-22T12:12:21.547Z,30.00
2023-02-22T12:15:29.731Z,29.90
2023-02-22T12:18:44.654Z,30.00
2023-02-22T12:21:23.589Z,29.90
2023-02-22T12:24:07.397Z,30.00
2023-02-22T12:26:52.089Z,29.90
2023-02-22T12:29:47.172Z,29.80
2023-02-22T12:32:42.173Z,29.30
2023-02-22T12:35:24.619Z,29.30
2023-02-22T12:38:31.419Z,29.00
2023-02-22T12:41:27.028Z,29.00
2023-02-22T12:44:26.572Z,28.70
2023-02-22T12:47:07.419Z,29.20
2023-02-22T12:49:58.511Z,28.80
2023-02-22T12:52:45.030Z,28.70
2023-02-22T12:55:35.264Z,28.90
2023-02-22T12:58:27.032Z,28.80
2023-02-22T13:01:15.179Z,28.80
2023-02-22T13:03:51.204Z,28.40
2023-02-22T13:07:03.846Z,28.20
2023-02-22T13:10:03.773Z,28.00
2023-02-22T13:13:03.788Z,28.20
2023-02-22T13:15:58.339Z,28.40
2023-02-22T13:19:08.822Z,28.00
2023-02-22T13:22:02.902Z,27.90
2023-02-22T13:25:02.521Z,28.10
2023-02-22T13:27:38.495Z,28.00
2023-02-22T13:30:29.546Z,27.70
2023-02-22T13:33:48.588Z,27.90
2023-02-22T13:36:54.307Z,27.90
2023-02-22T13:40:03.426Z,27.90
2023-02-22T13:43:09.152Z,27.20
2023-02-22T13:46:02.736Z,27.00
2023-02-22T13:49:09.626Z,27.50
2023-02-22T13:52:02.611Z,27.70
2023-02-22T13:54:47.638Z,27.70
2023-02-22T13:57:39.333Z,27.50
2023-02-22T14:00:23.138Z,27.10
2023-02-22T14:03:12.897Z,27.20
2023-02-22T14:05:51.950Z,27.00
2023-02-22T14:08:27.855Z,26.70
2023-02-22T14:11:33.100Z,27.00
2023-02-22T14:14:08.029Z,27.20
2023-02-22T14:16:43.473Z,27.30
2023-02-22T14:19:25.005Z,27.40
2023-02-22T14:22:06.777Z,27.20
2023-02-22T14:24:47.876Z,27.10
2023-02-22T14:27:22.786Z,27.30
2023-02-22T14:30:00.486Z,27.20
2023-02-22T14:32:35.837Z,27.50
2023-02-22T14:35:27.111Z,27.50
2023-02-22T14:38:18.119Z,27.60
2023-02-22T14:40:55.793Z,27.70
2023-02-22T14:43:31.237Z,27.70
2023-02-22T14:46:13.378Z,27.90
2023-02-22T14:48:55.014Z,27.90
2023-02-22T14:51:40.815Z,27.90
2023-02-22T14:54:27.457Z,28.10
2023-02-22T14:57:17.359Z,28.20
2023-02-22T15:00:19.743Z,28.10
2023-02-22T15:02:57.228Z,28.10
2023-02-22T15:05:40.608Z,28.20
2023-02-22T15:08:17.936Z,28.40
2023-02-22T15:10:54.356Z,28.40
2023-02-22T15:13:34.170Z,28.50
2023-02-22T15:16:15.315Z,28.60
2023-02-22T15:18:55.821Z,28.20
2023-02-22T15:21:32.049Z,28.80
2023-02-22T15:24:08.050Z,29.00
2023-02-22T15:27:00.145Z,29.10
2023-02-22T15:29:44.394Z,29.20
2023-02-22T15:32:49.874Z,29.30
2023-02-22T15:35:33.908Z,29.30
2023-02-22T15:38:11.971Z,29.40
2023-02-22T15:40:50.901Z,29.50
2023-02-22T15:43:28.603Z,29.50
2023-02-22T15:46:06.653Z,29.50
2023-02-22T15:48:41.699Z,29.50
2023-02-22T15:51:17.913Z,29.60
2023-02-22T15:53:54.068Z,29.70
2023-02-22T15:56:33.862Z,29.70
2023-02-22T15:59:18.367Z,29.70
2023-02-22T16:01:53.981Z,29.70
2023-02-22T16:04:31.500Z,29.80
2023-02-22T16:07:17.101Z,29.80
2023-02-22T16:09:52.655Z,29.90
2023-02-22T16:12:28.553Z,29.90
2023-02-22T16:15:15.720Z,30.20
2023-02-22T16:18:01.333Z,30.00
2023-02-22T16:20:38.656Z,30.00
2023-02-22T16:23:25.652Z,30.00
2023-02-22T16:26:30.699Z,30.10
2023-02-22T16:29:08.842Z,30.30
2023-02-22T16:31:43.930Z,30.40
2023-02-22T16:34:18.820Z,30.40
2023-02-22T16:36:55.484Z,30.60
2023-02-22T16:39:34.736Z,30.60
2023-02-22T16:42:10.393Z,30.70
2023-02-22T16:44:45.692Z,30.80
2023-02-22T16:47:21.185Z,30.90
2023-02-22T16:49:57.405Z,31.00
2023-02-22T16:52:33.668Z,31.00
2023-02-22T16:55:16.623Z,31.20
2023-02-22T16:57:56.319Z,31.30
2023-02-22T17:00:31.777Z,31.30
2023-02-22T17:03:06.733Z,31.50
2023-02-22T17:05:41.718Z,31.60
2023-02-22T17:08:16.852Z,31.60
2023-02-22T17:10:56.623Z,31.70
2023-02-22T17:13:31.693Z,32.90
2023-02-22T17:16:07.178Z,32.00
2023-02-22T17:18:42.084Z,32.10
2023-02-22T17:21:17.025Z,32.20
2023-02-22T17:23:51.901Z,32.30
2023-02-22T17:26:28.173Z,32.40
2023-02-22T17:29:03.152Z,32.40
2023-02-22T17:31:38.294Z,32.30
2023-02-22T17:34:13.217Z,32.40
2023-02-22T17:36:48.667Z,32.40
2023-02-22T17:39:23.581Z,32.40
2023-02-22T17:41:58.931Z,32.30
2023-02-22T17:44:35.230Z,32.30
2023-02-22T17:47:10.161Z,32.20
2023-02-22T17:49:45.070Z,32.20
2023-02-22T17:52:20.029Z,32.10
2023-02-22T17:54:54.893Z,32.20
2023-02-22T17:57:30.161Z,32.10
2023-02-22T18:00:12.509Z,32.20
2023-02-22T18:02:51.903Z,32.20
2023-02-22T18:05:26.786Z,32.20
2023-02-22T18:08:01.674Z,32.20
2023-02-22T18:10:36.963Z,32.30
2023-02-22T18:13:18.061Z,32.40
2023-02-22T18:15:53.880Z,32.40
2023-02-22T18:18:29.408Z,32.50
2023-02-22T18:21:06.261Z,32.50
2023-02-22T18:23:42.136Z,32.40
2023-02-22T18:26:20.181Z,32.50
2023-02-22T18:28:55.160Z,32.60
2023-02-22T18:31:30.691Z,32.60
2023-02-22T18:34:05.582Z,32.60
2023-02-22T18:36:40.441Z,32.70
2023-02-22T18:39:15.554Z,32.70
2023-02-22T18:41:50.499Z,32.70
2023-02-22T18:44:27.094Z,32.80
2023-02-22T18:47:01.965Z,32.80
2023-02-22T18:49:36.917Z,32.80
2023-02-22T18:52:11.800Z,32.80
2023-02-22T18:54:47.233Z,32.90
2023-02-22T18:57:22.857Z,32.90
2023-02-22T18:59:57.723Z,32.90
2023-02-22T19:02:33.097Z,33.00
2023-02-22T19:05:09.937Z,33.10
2023-02-22T19:07:45.214Z,33.10
2023-02-22T19:10:22.472Z,33.10
2023-02-22T19:12:57.341Z,33.20
2023-02-22T19:15:32.207Z,33.20
2023-02-22T19:18:07.068Z,33.30
2023-02-22T19:20:41.954Z,33.40
2023-02-22T19:23:16.807Z,33.50
2023-02-22T19:25:51.919Z,33.50
2023-02-22T19:28:33.825Z,33.50
2023-02-22T19:31:26.122Z,33.60
2023-02-22T19:34:09.960Z,33.80
2023-02-22T19:36:46.173Z,33.90
2023-02-22T19:42:01.793Z,33.90
2023-02-22T19:44:37.474Z,33.90
2023-02-22T19:47:12.469Z,33.90
2023-02-22T19:49:50.076Z,33.90
2023-02-22T19:52:24.993Z,34.00
2023-02-22T19:54:59.925Z,33.90
2023-02-22T19:57:34.788Z,34.00
2023-02-22T20:00:11.542Z,34.00
2023-02-22T20:02:46.366Z,33.90
2023-02-22T20:05:21.220Z,34.00
2023-02-22T20:07:56.083Z,34.10
2023-02-22T20:10:31.339Z,34.10
2023-02-22T20:13:06.979Z,34.20
2023-02-22T20:15:44.770Z,34.20
2023-02-22T20:18:21.570Z,34.40
2023-02-22T20:20:56.544Z,34.50
2023-02-22T20:23:31.421Z,34.60
2023-02-22T20:26:14.355Z,34.60
2023-02-22T20:28:50.012Z,34.70
2023-02-22T20:31:25.120Z,34.80
2023-02-22T20:34:00.986Z,34.80
2023-02-22T20:36:39.255Z,34.90
2023-02-22T20:39:14.819Z,34.90
2023-02-22T20:41:49.756Z,34.90
2023-02-22T20:44:24.697Z,35.00
2023-02-22T20:46:59.744Z,35.00
2023-02-22T20:49:35.914Z,35.00
2023-02-22T20:52:10.774Z,35.20
2023-02-22T20:54:45.660Z,35.30
2023-02-22T20:57:20.525Z,35.30
2023-02-22T20:59:55.388Z,35.40
2023-02-22T21:02:30.240Z,35.40
2023-02-22T21:05:08.046Z,35.50
2023-02-22T21:07:42.984Z,35.40
2023-02-22T21:10:21.029Z,35.60
2023-02-22T21:12:56.985Z,35.70
2023-02-22T21:15:37.252Z,35.70
2023-02-22T21:18:12.785Z,35.70
2023-02-22T21:20:48.640Z,35.80
2023-02-22T21:23:23.639Z,36.40
2023-02-22T21:25:58.536Z,36.10
2023-02-22T21:28:53.194Z,36.10
2023-02-22T21:31:29.367Z,36.30
2023-02-22T21:34:04.742Z,36.40
2023-02-22T21:36:39.695Z,36.40
2023-02-22T21:39:19.031Z,36.70
2023-02-22T21:42:00.031Z,37.00
2023-02-22T21:44:34.928Z,37.30
2023-02-22T21:47:09.800Z,37.50
2023-02-22T21:49:44.676Z,37.60
2023-02-22T21:52:19.639Z,37.70
2023-02-22T21:54:54.498Z,37.80
2023-02-22T21:57:30.190Z,37.70
2023-02-22T22:00:18.647Z,37.80
2023-02-22T22:02:53.572Z,37.80
2023-02-22T22:05:34.548Z,38.00
2023-02-22T22:08:13.242Z,38.00
2023-02-22T22:10:57.578Z,38.00
2023-02-22T22:13:32.446Z,38.00
2023-02-22T22:16:12.206Z,38.00
2023-02-22T22:18:47.496Z,38.00
2023-02-22T22:21:24.467Z,37.90
2023-02-22T22:23:59.447Z,38.10
2023-02-22T22:26:34.709Z,37.80
2023-02-22T22:29:10.512Z,37.80
2023-02-22T22:31:45.934Z,37.80
2023-02-22T22:34:24.238Z,37.90
2023-02-22T22:36:59.273Z,37.90
2023-02-22T22:39:34.195Z,37.90
2023-02-22T22:42:09.690Z,37.90
2023-02-22T22:44:44.836Z,38.00
2023-02-22T22:47:20.763Z,38.10
2023-02-22T22:50:01.337Z,38.20
2023-02-22T22:52:37.585Z,38.20
2023-02-22T22:55:12.803Z,38.30
2023-02-22T22:57:47.737Z,38.40
2023-02-22T23:00:26.684Z,38.40
2023-02-22T23:03:01.676Z,38.50
2023-02-22T23:05:42.208Z,38.60
2023-02-22T23:08:17.158Z,38.70
2023-02-22T23:10:52.010Z,38.80
2023-02-22T23:13:26.985Z,39.00
2023-02-22T23:16:01.986Z,39.00
2023-02-22T23:18:36.929Z,39.00
2023-02-22T23:21:11.989Z,39.00
2023-02-22T23:23:51.523Z,39.10
2023-02-22T23:26:26.945Z,39.10
2023-02-22T23:29:02.737Z,39.50
2023-02-22T23:31:39.769Z,39.30
2023-02-22T23:34:21.008Z,39.50
2023-02-22T23:36:56.023Z,39.60
2023-02-22T23:39:30.889Z,39.70
2023-02-22T23:42:08.812Z,39.80
2023-02-22T23:44:46.108Z,39.90
2023-02-22T23:47:21.045Z,39.90
2023-02-22T23:49:58.915Z,39.90
2023-02-22T23:52:33.752Z,39.90
2023-02-22T23:55:09.600Z,40.00
2023-02-22T23:57:44.464Z,39.70
